Time;durP1;ratioP1;P1;durP2;ratioP2;P2;SDS_P1;SDS_P2;PMS_P1;PMS_P2;Temp;Humidity;BMP_temperature;BMP_pressure;BME280_temperature;BME280_humidity;BME280_pressure;Samples;Min_cycle;Max_cycle;Signal;HPM_P1;HPM_P2
2024/01/05 00:02:59;;;;;;;5.00;2.30;;;;;;;;;;6292153;28;20522;-60
2024/01/05 00:06:00;;;;;;;6.18;2.60;;;;;;;;;;6290293;28;20049;-60
2024/01/05 00:09:02;;;;;;;5.38;2.63;;;;;;;;;;6292635;28;20048;-61
2024/01/05 00:12:03;;;;;;;7.57;2.40;;;;;;;;;;6290100;28;20082;-61
2024/01/05 00:15:06;;;;;;;6.93;2.75;;;;;;;;;;6289424;28;20442;-61
2024/01/05 00:18:07;;;;;;;9.75;3.55;;;;;;;;;;6290282;28;20052;-60
2024/01/05 00:21:07;;;;;;;8.38;3.75;;;;;;;;;;6290668;28;20396;-60
2024/01/05 00:24:08;;;;;;;6.53;2.78;;;;;;;;;;6289784;28;20218;-60
2024/01/05 00:27:09;;;;;;;6.43;2.78;;;;;;;;;;6290229;28;20063;-60
2024/01/05 00:30:10;;;;;;;6.78;3.25;;;;;;;;;;6291804;28;20068;-61
2024/01/05 00:33:11;;;;;;;5.75;2.65;;;;;;;;;;6289946;28;20048;-60
2024/01/05 00:36:12;;;;;;;7.75;2.80;;;;;;;;;;6289886;28;20058;-60
2024/01/05 00:39:12;;;;;;;7.30;3.10;;;;;;;;;;6288930;28;20481;-60
2024/01/05 00:42:13;;;;;;;6.50;3.05;;;;;;;;;;6290271;28;20048;-60
2024/01/05 00:45:14;;;;;;;7.70;3.05;;;;;;;;;;6289167;28;20064;-61
2024/01/05 00:48:15;;;;;;;6.75;2.95;;;;;;;;;;6290417;28;20075;-60
2024/01/05 00:51:16;;;;;;;7.45;3.33;;;;;;;;;;6291291;28;20052;-60
2024/01/05 00:54:16;;;;;;;6.63;3.28;;;;;;;;;;6290087;28;20060;-61
2024/01/05 00:57:17;;;;;;;8.05;3.55;;;;;;;;;;6290809;28;20057;-60
2024/01/05 01:00:18;;;;;;;8.02;3.42;;;;;;;;;;6291030;28;20079;-60
2024/01/05 01:03:19;;;;;;;8.38;3.53;;;;;;;;;;6290277;28;20052;-61
2024/01/05 01:06:20;;;;;;;9.73;3.42;;;;;;;;;;6289497;28;20086;-60
2024/01/05 01:09:20;;;;;;;8.57;3.22;;;;;;;;;;6291004;28;20439;-61
2024/01/05 01:12:21;;;;;;;7.65;3.67;;;;;;;;;;6290905;28;20043;-60
2024/01/05 01:15:22;;;;;;;8.80;3.55;;;;;;;;;;6285623;28;20045;-60
2024/01/05 01:18:23;;;;;;;10.68;3.92;;;;;;;;;;6289508;28;20063;-60
2024/01/05 01:21:24;;;;;;;7.93;3.92;;;;;;;;;;6290215;28;20044;-60
2024/01/05 01:24:25;;;;;;;9.60;3.78;;;;;;;;;;6288366;28;20507;-61
2024/01/05 01:27:25;;;;;;;7.38;3.55;;;;;;;;;;6287559;28;20044;-60
2024/01/05 01:30:27;;;;;;;8.45;3.92;;;;;;;;;;6289985;28;20045;-61
2024/01/05 01:33:27;;;;;;;10.13;4.18;;;;;;;;;;6289752;28;20136;-61
2024/01/05 01:36:28;;;;;;;7.90;4.38;;;;;;;;;;6289290;28;20131;-61
2024/01/05 01:39:30;;;;;;;9.88;4.22;;;;;;;;;;6290866;28;20036;-61
2024/01/05 01:42:32;;;;;;;8.35;4.00;;;;;;;;;;6290304;28;20045;-60
2024/01/05 01:45:33;;;;;;;8.48;3.95;;;;;;;;;;6286598;28;20137;-60
2024/01/05 01:48:33;;;;;;;10.27;4.55;;;;;;;;;;6289811;28;20048;-60
2024/01/05 01:51:35;;;;;;;9.88;4.40;;;;;;;;;;6288970;28;20044;-61
2024/01/05 01:54:36;;;;;;;8.07;4.00;;;;;;;;;;6288012;28;20404;-60
2024/01/05 01:57:37;;;;;;;8.70;4.20;;;;;;;;;;6289389;28;20053;-61
2024/01/05 02:00:38;;;;;;;10.33;4.20;;;;;;;;;;6289997;28;20059;-61
2024/01/05 02:03:39;;;;;;;8.13;4.03;;;;;;;;;;6289052;28;20044;-61
2024/01/05 02:06:45;;;;;;;8.38;4.30;;;;;;;;;;6285967;28;20053;-60
2024/01/05 02:09:46;;;;;;;12.73;4.00;;;;;;;;;;6287765;28;20049;-62
2024/01/05 02:12:47;;;;;;;9.38;4.25;;;;;;;;;;6288814;28;20048;-61
2024/01/05 02:15:47;;;;;;;6.18;3.55;;;;;;;;;;6287000;28;20109;-61
2024/01/05 02:18:52;;;;;;;7.63;3.72;;;;;;;;;;6288445;28;20493;-60
2024/01/05 02:21:56;;;;;;;8.30;3.55;;;;;;;;;;6288912;28;20106;-61
2024/01/05 02:24:57;;;;;;;8.07;3.97;;;;;;;;;;6287778;28;20037;-60
2024/01/05 02:27:58;;;;;;;7.68;3.28;;;;;;;;;;6285764;28;20059;-61
2024/01/05 02:30:59;;;;;;;8.40;3.63;;;;;;;;;;6288172;28;20049;-61
2024/01/05 02:33:59;;;;;;;8.30;3.90;;;;;;;;;;6288180;28;20484;-60
2024/01/05 02:37:00;;;;;;;8.18;3.80;;;;;;;;;;6288221;28;20033;-61
2024/01/05 02:40:02;;;;;;;7.28;3.50;;;;;;;;;;6289350;28;20533;-61
2024/01/05 02:43:03;;;;;;;8.35;3.58;;;;;;;;;;6289079;28;20551;-61
2024/01/05 02:46:03;;;;;;;8.75;3.40;;;;;;;;;;6286848;28;20051;-61
2024/01/05 02:49:05;;;;;;;8.00;3.22;;;;;;;;;;6289304;28;20491;-60
2024/01/05 02:52:06;;;;;;;6.03;3.45;;;;;;;;;;6287651;28;20148;-62
2024/01/05 02:55:09;;;;;;;8.00;3.63;;;;;;;;;;6287966;28;20452;-60
2024/01/05 02:58:09;;;;;;;8.65;3.38;;;;;;;;;;6290247;28;20044;-61
2024/01/05 03:01:15;;;;;;;8.75;3.58;;;;;;;;;;6287930;28;20394;-61
2024/01/05 03:04:16;;;;;;;6.40;3.00;;;;;;;;;;6288395;28;20599;-60
2024/01/05 03:07:17;;;;;;;7.20;3.35;;;;;;;;;;6285969;28;20094;-60
2024/01/05 03:10:18;;;;;;;7.55;3.28;;;;;;;;;;6287898;28;20847;-60
2024/01/05 03:13:19;;;;;;;7.97;3.08;;;;;;;;;;6289055;28;20094;-61
2024/01/05 03:16:19;;;;;;;6.20;2.83;;;;;;;;;;6285675;28;20694;-60
2024/01/05 03:19:20;;;;;;;6.32;2.70;;;;;;;;;;6285191;28;20045;-60
2024/01/05 03:22:21;;;;;;;5.80;3.05;;;;;;;;;;6288814;28;20048;-60
2024/01/05 03:25:22;;;;;;;6.25;2.95;;;;;;;;;;6287513;28;20480;-61
2024/01/05 03:28:23;;;;;;;7.35;3.22;;;;;;;;;;6287567;28;20045;-61
2024/01/05 03:31:25;;;;;;;5.53;2.88;;;;;;;;;;6287075;28;20056;-61
2024/01/05 03:34:27;;;;;;;;;;;;;;;;;;6288424;28;20052;-61
2024/01/05 03:37:28;;;;;;;6.47;3.10;;;;;;;;;;6286137;28;19928;-60
2024/01/05 03:40:28;;;;;;;6.15;3.22;;;;;;;;;;6287676;28;20086;-61
2024/01/05 03:43:29;;;;;;;7.68;3.53;;;;;;;;;;6289251;28;20057;-61
2024/01/05 03:46:30;;;;;;;6.85;3.55;;;;;;;;;;6287763;28;20127;-61
2024/01/05 03:49:31;;;;;;;7.72;3.55;;;;;;;;;;6292318;28;20064;-61
2024/01/05 03:52:31;;;;;;;8.63;3.45;;;;;;;;;;6292920;28;20048;-61
2024/01/05 03:55:32;;;;;;;7.95;3.78;;;;;;;;;;6291631;28;20099;-60
2024/01/05 03:58:33;;;;;;;7.68;3.70;;;;;;;;;;6292682;28;20048;-61
2024/01/05 04:01:43;;;;;;;7.05;4.13;;;;;;;;;;6292756;28;20418;-61
2024/01/05 04:04:43;;;;;;;9.25;3.88;;;;;;;;;;6288480;28;20415;-61
2024/01/05 04:07:44;;;;;;;10.93;4.38;;;;;;;;;;6289094;28;20059;-60
2024/01/05 04:10:45;;;;;;;18.90;6.53;;;;;;;;;;6290714;28;20098;-61
2024/01/05 04:13:47;;;;;;;14.52;4.78;;;;;;;;;;6292263;28;20391;-62
2024/01/05 04:16:48;;;;;;;11.02;4.53;;;;;;;;;;6289687;28;20075;-61
2024/01/05 04:19:49;;;;;;;10.23;4.53;;;;;;;;;;6289224;28;20055;-61
2024/01/05 04:22:49;;;;;;;10.35;4.72;;;;;;;;;;6289649;28;20491;-61
2024/01/05 04:25:51;;;;;;;12.23;5.03;;;;;;;;;;6289233;28;20048;-61
2024/01/05 04:28:52;;;;;;;14.82;5.50;;;;;;;;;;6289639;28;20131;-61
2024/01/05 04:31:52;;;;;;;13.00;5.65;;;;;;;;;;6290443;28;20091;-61
2024/01/05 04:34:53;;;;;;;11.93;5.78;;;;;;;;;;6289828;28;20044;-61
2024/01/05 04:37:54;;;;;;;13.35;5.25;;;;;;;;;;6290911;28;20563;-61
2024/01/05 04:40:55;;;;;;;12.82;5.60;;;;;;;;;;6291713;28;20474;-61
2024/01/05 04:43:57;;;;;;;14.27;5.82;;;;;;;;;;6291442;28;20057;-61
2024/01/05 04:46:57;;;;;;;12.73;5.27;;;;;;;;;;6291607;28;20055;-61
2024/01/05 04:49:58;;;;;;;15.05;5.78;;;;;;;;;;6290161;28;20765;-61
2024/01/05 04:52:59;;;;;;;13.20;5.93;;;;;;;;;;6291163;28;20044;-60
2024/01/05 04:56:00;;;;;;;17.10;7.68;;;;;;;;;;6291503;28;20395;-60
2024/01/05 04:59:00;;;;;;;23.02;9.30;;;;;;;;;;6289234;28;20056;-60
2024/01/05 05:02:01;;;;;;;27.65;12.07;;;;;;;;;;6290610;28;20050;-62
2024/01/05 05:05:02;;;;;;;23.92;8.90;;;;;;;;;;6289649;28;20040;-61
2024/01/05 05:08:03;;;;;;;13.15;5.50;;;;;;;;;;6287197;28;20044;-62
2024/01/05 05:11:04;;;;;;;9.80;4.97;;;;;;;;;;6289335;28;20052;-61
2024/01/05 05:14:05;;;;;;;11.75;5.45;;;;;;;;;;6290306;28;20082;-61
2024/01/05 05:17:06;;;;;;;12.32;5.10;;;;;;;;;;6289107;28;20056;-61
2024/01/05 05:20:07;;;;;;;16.75;5.80;;;;;;;;;;6287851;28;20040;-61
2024/01/05 05:23:07;;;;;;;13.65;5.30;;;;;;;;;;6289478;28;20050;-60
2024/01/05 05:26:08;;;;;;;14.75;5.65;;;;;;;;;;6289644;28;20556;-61
2024/01/05 05:29:09;;;;;;;12.43;5.65;;;;;;;;;;6288877;28;20052;-61
2024/01/05 05:32:10;;;;;;;15.88;5.97;;;;;;;;;;6281145;28;20150;-61
2024/01/05 05:35:11;;;;;;;12.70;5.97;;;;;;;;;;6289532;28;20063;-63
2024/01/05 05:38:12;;;;;;;14.75;6.53;;;;;;;;;;6285927;28;20045;-62
2024/01/05 05:41:13;;;;;;;13.90;6.30;;;;;;;;;;6287154;28;20045;-60
2024/01/05 05:44:14;;;;;;;15.20;6.22;;;;;;;;;;6290120;28;20044;-61
2024/01/05 05:47:14;;;;;;;16.77;5.82;;;;;;;;;;6287698;28;20107;-60
2024/01/05 05:50:15;;;;;;;13.82;6.47;;;;;;;;;;6287513;28;20061;-61
2024/01/05 05:53:16;;;;;;;18.17;6.65;;;;;;;;;;6283538;28;20048;-61
2024/01/05 05:56:18;;;;;;;14.15;6.43;;;;;;;;;;6287690;28;20052;-61
2024/01/05 05:59:19;;;;;;;16.25;6.47;;;;;;;;;;6288565;28;20071;-60
2024/01/05 06:02:19;;;;;;;19.02;7.07;;;;;;;;;;6288252;28;20044;-62
2024/01/05 06:05:20;;;;;;;17.67;7.18;;;;;;;;;;6287382;28;20415;-61
2024/01/05 06:08:21;;;;;;;19.17;7.45;;;;;;;;;;6286287;28;20094;-60
2024/01/05 06:11:26;;;;;;;15.10;6.65;;;;;;;;;;6287865;28;20044;-60
2024/01/05 06:14:27;;;;;;;15.80;6.90;;;;;;;;;;6284513;28;20097;-59
2024/01/05 06:17:28;;;;;;;17.08;7.05;;;;;;;;;;6286227;28;20048;-60
2024/01/05 06:20:28;;;;;;;15.48;7.20;;;;;;;;;;6289255;28;20052;-59
2024/01/05 06:23:31;;;;;;;17.55;7.30;;;;;;;;;;6288628;28;20101;-60
2024/01/05 06:26:32;;;;;;;19.23;7.63;;;;;;;;;;6287162;28;20045;-60
2024/01/05 06:29:33;;;;;;;17.42;7.47;;;;;;;;;;6288727;28;20036;-60
2024/01/05 06:32:33;;;;;;;16.58;7.50;;;;;;;;;;6287638;28;20376;-59
2024/01/05 06:35:34;;;;;;;22.15;8.82;;;;;;;;;;6287661;28;20056;-60
2024/01/05 06:38:35;;;;;;;24.80;9.43;;;;;;;;;;6287997;28;20322;-60
2024/01/05 06:41:36;;;;;;;25.05;9.50;;;;;;;;;;6289150;28;20051;-59
2024/01/05 06:44:36;;;;;;;28.83;10.88;;;;;;;;;;6288936;28;20178;-60
2024/01/05 06:47:37;;;;;;;27.65;9.38;;;;;;;;;;6287530;28;20052;-60
2024/01/05 06:50:38;;;;;;;31.48;10.93;;;;;;;;;;6286788;28;20048;-60
2024/01/05 06:53:39;;;;;;;25.63;10.55;;;;;;;;;;6289080;28;20373;-60
2024/01/05 06:56:42;;;;;;;27.15;10.30;;;;;;;;;;6286984;28;20389;-60
2024/01/05 06:59:42;;;;;;;25.48;10.57;;;;;;;;;;6287767;28;20177;-59
2024/01/05 07:02:43;;;;;;;27.65;10.82;;;;;;;;;;6289341;28;20082;-60
2024/01/05 07:05:45;;;;;;;29.55;11.43;;;;;;;;;;6287537;28;20060;-60
2024/01/05 07:08:46;;;;;;;;;;;;;;;;;;6287878;28;20173;-60
2024/01/05 07:11:47;;;;;;;32.15;11.93;;;;;;;;;;6290111;28;20421;-59
2024/01/05 07:14:48;;;;;;;41.92;17.02;;;;;;;;;;6288963;28;20045;-59
2024/01/05 07:17:48;;;;;;;35.95;14.32;;;;;;;;;;6285750;28;20503;-61
2024/01/05 07:20:49;;;;;;;50.42;17.25;;;;;;;;;;6293398;28;20056;-60
2024/01/05 07:23:50;;;;;;;49.35;17.02;;;;;;;;;;6293217;28;20169;-60
2024/01/05 07:26:51;;;;;;;37.92;15.23;;;;;;;;;;6291996;28;20570;-60
2024/01/05 07:29:51;;;;;;;48.03;19.58;;;;;;;;;;6291616;28;20067;-59
2024/01/05 07:32:52;;;;;;;52.03;21.40;;;;;;;;;;6291183;28;20036;-60
2024/01/05 07:35:53;;;;;;;59.63;22.13;;;;;;;;;;6292272;28;20048;-60
2024/01/05 07:38:58;;;;;;;46.03;18.90;;;;;;;;;;6292151;28;20385;-59
2024/01/05 07:42:02;;;;;;;50.90;20.00;;;;;;;;;;6293107;28;20095;-60
2024/01/05 07:45:04;;;;;;;37.38;15.25;;;;;;;;;;6292759;28;20495;-59
2024/01/05 07:48:05;;;;;;;42.17;17.40;;;;;;;;;;6291335;28;20052;-59
2024/01/05 07:51:07;;;;;;;50.78;19.40;;;;;;;;;;6291590;28;20056;-59
2024/01/05 07:54:07;;;;;;;48.75;20.00;;;;;;;;;;6292851;28;20052;-60
2024/01/05 07:57:08;;;;;;;47.75;20.67;;;;;;;;;;6289477;28;20063;-59
2024/01/05 08:00:10;;;;;;;42.78;17.88;;;;;;;;;;6291393;28;20052;-60
2024/01/05 08:03:11;;;;;;;38.10;15.55;;;;;;;;;;6293014;28;20052;-61
2024/01/05 08:06:16;;;;;;;36.80;15.13;;;;;;;;;;6289469;28;20507;-60
2024/01/05 08:09:17;;;;;;;37.20;15.85;;;;;;;;;;6291133;28;20071;-60
2024/01/05 08:12:20;;;;;;;36.78;15.82;;;;;;;;;;6292402;28;20874;-59
2024/01/05 08:15:21;;;;;;;41.65;18.67;;;;;;;;;;6292436;28;20053;-60
2024/01/05 08:18:21;;;;;;;45.15;16.83;;;;;;;;;;6288339;28;20055;-60
2024/01/05 08:21:22;;;;;;;46.97;18.65;;;;;;;;;;6289413;28;20584;-60
2024/01/05 08:24:25;;;;;;;39.42;18.35;;;;;;;;;;6291815;28;20036;-60
2024/01/05 08:27:26;;;;;;;46.33;19.13;;;;;;;;;;6289754;28;20045;-62
2024/01/05 08:30:27;;;;;;;51.85;23.83;;;;;;;;;;6289766;28;20411;-59
2024/01/05 08:33:28;;;;;;;47.30;17.77;;;;;;;;;;6291691;28;20097;-60
2024/01/05 08:36:28;;;;;;;46.20;19.42;;;;;;;;;;6290886;28;20048;-60
2024/01/05 08:39:29;;;;;;;43.20;18.98;;;;;;;;;;6289652;28;20513;-60
2024/01/05 08:42:30;;;;;;;51.42;20.35;;;;;;;;;;6290883;28;20044;-60
2024/01/05 08:45:32;;;;;;;51.38;21.10;;;;;;;;;;6289684;28;20048;-61
2024/01/05 08:48:33;;;;;;;45.38;18.67;;;;;;;;;;6289944;28;20041;-59
2024/01/05 08:51:41;;;;;;;53.70;21.02;;;;;;;;;;6290669;28;20051;-59
2024/01/05 08:54:41;;;;;;;44.03;16.88;;;;;;;;;;6289386;28;20152;-59
2024/01/05 08:57:43;;;;;;;37.40;17.33;;;;;;;;;;6288344;28;20048;-60
2024/01/05 09:00:43;;;;;;;41.53;15.88;;;;;;;;;;6290331;28;20052;-59
2024/01/05 09:03:44;;;;;;;47.55;17.10;;;;;;;;;;6291247;28;20174;-60
2024/01/05 09:06:45;;;;;;;36.92;15.68;;;;;;;;;;6288297;28;20631;-59
2024/01/05 09:09:46;;;;;;;37.65;16.05;;;;;;;;;;6288681;28;20083;-60
2024/01/05 09:12:46;;;;;;;31.75;14.23;;;;;;;;;;6290503;28;20098;-60
2024/01/05 09:15:48;;;;;;;32.92;13.45;;;;;;;;;;6289226;28;20075;-60
2024/01/05 09:18:49;;;;;;;30.42;13.18;;;;;;;;;;6288375;28;20079;-59
2024/01/05 09:21:50;;;;;;;36.43;13.83;;;;;;;;;;6291128;28;20063;-59
2024/01/05 09:24:50;;;;;;;29.42;12.18;;;;;;;;;;6289104;28;20527;-59
2024/01/05 09:27:51;;;;;;;27.33;11.82;;;;;;;;;;6286960;28;20055;-59
2024/01/05 09:30:52;;;;;;;33.25;13.82;;;;;;;;;;6289540;28;20689;-59
2024/01/05 09:33:54;;;;;;;41.58;15.73;;;;;;;;;;6289048;28;20151;-59
2024/01/05 09:36:55;;;;;;;35.20;14.95;;;;;;;;;;6288837;28;20061;-59
2024/01/05 09:39:56;;;;;;;40.13;15.32;;;;;;;;;;6288593;28;20045;-60
2024/01/05 09:42:57;;;;;;;39.13;16.30;;;;;;;;;;6289767;28;20028;-60
2024/01/05 09:45:58;;;;;;;37.75;15.80;;;;;;;;;;6289898;28;20055;-59
2024/01/05 09:49:03;;;;;;;37.00;16.40;;;;;;;;;;6288285;28;20040;-59
2024/01/05 09:52:04;;;;;;;41.38;17.80;;;;;;;;;;6288773;28;20056;-59
2024/01/05 09:55:06;;;;;;;41.83;18.05;;;;;;;;;;6288605;28;20041;-60
2024/01/05 09:58:07;;;;;;;46.70;18.23;;;;;;;;;;6288513;28;20499;-59
2024/01/05 10:01:11;;;;;;;42.88;17.60;;;;;;;;;;6289378;28;20079;-60
2024/01/05 10:04:12;;;;;;;47.08;19.70;;;;;;;;;;6277485;28;20056;-60
2024/01/05 10:07:15;;;;;;;39.72;18.60;;;;;;;;;;6288929;28;20056;-60
2024/01/05 10:10:16;;;;;;;52.63;22.00;;;;;;;;;;6288505;28;20476;-60
2024/01/05 10:13:17;;;;;;;41.80;16.35;;;;;;;;;;6289509;28;20060;-59
2024/01/05 10:16:20;;;;;;;38.70;16.42;;;;;;;;;;6289560;28;20048;-59
2024/01/05 10:19:21;;;;;;;35.75;15.60;;;;;;;;;;6285280;28;20548;-59
2024/01/05 10:22:22;;;;;;;37.20;16.17;;;;;;;;;;6289815;28;20048;-59
2024/01/05 10:25:23;;;;;;;50.72;19.08;;;;;;;;;;6288296;28;20040;-59
2024/01/05 10:28:32;;;;;;;53.15;21.63;;;;;;;;;;6287258;28;20451;-59
2024/01/05 10:31:33;;;;;;;45.53;18.02;;;;;;;;;;6288413;28;20083;-59
2024/01/05 10:34:34;;;;;;;39.72;16.63;;;;;;;;;;6288904;28;20059;-59
2024/01/05 10:37:35;;;;;;;33.53;14.60;;;;;;;;;;6289500;28;20049;-60
2024/01/05 10:40:36;;;;;;;35.40;14.05;;;;;;;;;;6288034;28;20058;-59
2024/01/05 10:43:38;;;;;;;31.95;15.35;;;;;;;;;;6288958;28;20487;-59
2024/01/05 10:46:42;;;;;;;35.13;15.05;;;;;;;;;;6289255;28;20549;-59
2024/01/05 10:49:50;;;;;;;37.30;17.25;;;;;;;;;;6287107;28;20044;-59
2024/01/05 10:52:54;;;;;;;36.05;15.60;;;;;;;;;;6288198;28;20049;-59
2024/01/05 10:55:57;;;;;;;38.17;15.90;;;;;;;;;;6291699;28;20094;-60
2024/01/05 10:58:58;;;;;;;36.45;15.98;;;;;;;;;;6292918;28;20040;-60
2024/01/05 11:01:59;;;;;;;32.72;14.27;;;;;;;;;;6292361;28;20106;-60
2024/01/05 11:05:08;;;;;;;36.78;15.23;;;;;;;;;;6291471;28;20040;-60
2024/01/05 11:08:23;;;;;;;37.25;17.05;;;;;;;;;;6291984;28;20048;-59
2024/01/05 11:11:58;;;;;;;34.75;15.57;;;;;;;;;;6291030;28;20052;-59
2024/01/05 11:15:02;;;;;;;31.80;14.27;;;;;;;;;;6292513;28;20139;-60
2024/01/05 11:18:18;;;;;;;31.52;14.05;;;;;;;;;;6292969;28;20048;-60
2024/01/05 11:21:45;;;;;;;32.47;13.27;;;;;;;;;;6291650;28;20495;-60
2024/01/05 11:24:48;;;;;;;31.45;13.30;;;;;;;;;;6289775;28;20052;-60
2024/01/05 11:27:48;;;;;;;34.05;14.27;;;;;;;;;;6292531;28;20481;-60
2024/01/05 11:30:50;;;;;;;35.53;15.45;;;;;;;;;;6292609;28;20041;-60
2024/01/05 11:33:50;;;;;;;33.78;14.98;;;;;;;;;;6291948;28;20044;-60
2024/01/05 11:36:51;;;;;;;34.50;15.43;;;;;;;;;;6291199;28;20048;-60
2024/01/05 11:39:53;;;;;;;37.08;15.38;;;;;;;;;;6293059;28;20499;-61
2024/01/05 11:42:58;;;;;;;38.45;17.13;;;;;;;;;;6292044;28;20044;-60
2024/01/05 11:45:59;;;;;;;36.70;14.90;;;;;;;;;;6291450;28;20061;-60
2024/01/05 11:49:02;;;;;;;37.70;14.75;;;;;;;;;;6288072;28;20506;-60
2024/01/05 11:52:03;;;;;;;37.33;14.35;;;;;;;;;;6292520;28;20150;-59
2024/01/05 11:55:08;;;;;;;34.60;14.87;;;;;;;;;;6292134;28;20785;-60
2024/01/05 11:58:12;;;;;;;35.92;16.25;;;;;;;;;;6291197;28;20187;-59
2024/01/05 12:01:15;;;;;;;38.13;17.38;;;;;;;;;;6291826;28;20131;-60
2024/01/05 12:04:17;;;;;;;34.53;15.15;;;;;;;;;;6292517;28;20050;-60
2024/01/05 12:07:19;;;;;;;36.13;14.85;;;;;;;;;;6288540;28;20753;-61
2024/01/05 12:10:24;;;;;;;39.15;16.13;;;;;;;;;;6290718;28;20045;-59
2024/01/05 12:13:27;;;;;;;31.73;15.60;;;;;;;;;;6292059;28;20056;-60
2024/01/05 12:16:28;;;;;;;34.67;16.00;;;;;;;;;;6290073;28;20057;-60
2024/01/05 12:19:28;;;;;;;43.92;18.98;;;;;;;;;;6291343;28;20052;-60
2024/01/05 12:22:29;;;;;;;38.55;16.88;;;;;;;;;;6292123;28;20144;-60
2024/01/05 12:25:31;;;;;;;34.13;15.60;;;;;;;;;;6291580;28;20063;-59
2024/01/05 12:28:34;;;;;;;35.30;15.63;;;;;;;;;;6290868;28;20048;-60
2024/01/05 12:31:36;;;;;;;34.90;15.70;;;;;;;;;;6291491;28;20048;-60
2024/01/05 12:34:37;;;;;;;32.08;15.30;;;;;;;;;;6290432;28;20048;-60
2024/01/05 12:37:52;;;;;;;43.47;17.38;;;;;;;;;;6289012;28;20532;-59
2024/01/05 12:41:08;;;;;;;37.10;16.00;;;;;;;;;;6279878;28;20037;-62
2024/01/05 12:44:10;;;;;;;38.45;16.17;;;;;;;;;;6290786;28;20135;-60
2024/01/05 12:47:12;;;;;;;44.67;16.70;;;;;;;;;;6289808;28;20101;-60
2024/01/05 12:50:27;;;;;;;37.20;15.75;;;;;;;;;;6288309;28;20458;-60
2024/01/05 12:53:27;;;;;;;43.53;15.10;;;;;;;;;;6278860;28;20102;-62
2024/01/05 12:56:28;;;;;;;39.22;16.25;;;;;;;;;;6291570;28;20724;-62
2024/01/05 12:59:32;;;;;;;41.88;16.40;;;;;;;;;;6290014;28;20384;-62
2024/01/05 13:02:38;;;;;;;47.70;18.70;;;;;;;;;;6291012;28;20045;-60
2024/01/05 13:05:39;;;;;;;45.47;17.00;;;;;;;;;;6291369;28;20075;-61
2024/01/05 13:08:40;;;;;;;45.75;17.10;;;;;;;;;;6290819;28;20052;-60
2024/01/05 13:11:50;;;;;;;44.58;17.55;;;;;;;;;;6290594;28;20057;-60
2024/01/05 13:14:51;;;;;;;44.97;17.00;;;;;;;;;;6289850;28;20423;-61
2024/01/05 13:17:52;;;;;;;43.20;17.45;;;;;;;;;;6290186;28;20514;-61
2024/01/05 13:20:53;;;;;;;41.05;16.90;;;;;;;;;;6288958;28;20094;-60
2024/01/05 13:23:55;;;;;;;48.55;17.58;;;;;;;;;;6289840;28;20048;-60
2024/01/05 13:26:58;;;;;;;49.92;20.15;;;;;;;;;;6290428;28;20492;-60
2024/01/05 13:29:59;;;;;;;58.83;21.38;;;;;;;;;;6287982;28;20053;-60
2024/01/05 13:32:59;;;;;;;53.00;19.13;;;;;;;;;;6289174;28;20098;-60
2024/01/05 13:36:00;;;;;;;46.75;18.33;;;;;;;;;;6290317;28;20044;-60
2024/01/05 13:39:01;;;;;;;58.00;23.00;;;;;;;;;;6290491;28;20048;-60
2024/01/05 13:42:03;;;;;;;59.53;23.93;;;;;;;;;;6288300;28;20041;-60
2024/01/05 13:45:07;;;;;;;53.30;20.27;;;;;;;;;;6290409;28;20044;-60
2024/01/05 13:48:08;;;;;;;57.83;21.65;;;;;;;;;;6290369;28;20048;-59
2024/01/05 13:51:09;;;;;;;61.08;24.48;;;;;;;;;;6275127;28;20790;-60
2024/01/05 13:54:09;;;;;;;68.85;24.13;;;;;;;;;;6266873;28;20060;-62
2024/01/05 13:57:10;;;;;;;59.88;23.67;;;;;;;;;;6272606;28;20565;-60
2024/01/05 14:00:11;;;;;;;66.63;25.90;;;;;;;;;;6266562;28;20052;-62
2024/01/05 14:03:12;;;;;;;63.83;24.52;;;;;;;;;;6265285;28;20172;-61
2024/01/05 14:06:13;;;;;;;69.20;24.40;;;;;;;;;;6263127;28;20197;-62
2024/01/05 14:09:14;;;;;;;78.45;26.98;;;;;;;;;;6273054;28;20049;-61
2024/01/05 14:12:15;;;;;;;69.57;25.95;;;;;;;;;;6264111;28;20076;-61
2024/01/05 14:15:15;;;;;;;118.90;40.03;;;;;;;;;;6272206;28;20055;-61
2024/01/05 14:18:16;;;;;;;95.03;34.28;;;;;;;;;;6280919;28;20070;-62
2024/01/05 14:21:21;;;;;;;117.72;41.10;;;;;;;;;;6285681;28;20049;-61
2024/01/05 14:24:24;;;;;;;133.55;45.78;;;;;;;;;;6287758;28;20044;-60
2024/01/05 14:27:24;;;;;;;97.93;34.03;;;;;;;;;;6287741;28;20051;-60
2024/01/05 14:30:25;;;;;;;78.60;31.30;;;;;;;;;;6287649;28;20045;-60
2024/01/05 14:33:26;;;;;;;75.80;27.58;;;;;;;;;;6288475;28;20056;-61
2024/01/05 14:36:27;;;;;;;66.85;25.80;;;;;;;;;;6288971;28;20133;-61
2024/01/05 14:39:28;;;;;;;60.92;24.23;;;;;;;;;;6283160;28;20053;-61
2024/01/05 14:42:29;;;;;;;66.88;25.30;;;;;;;;;;6280177;28;20053;-62
2024/01/05 14:45:30;;;;;;;68.78;25.25;;;;;;;;;;6281927;28;20048;-61
2024/01/05 14:48:31;;;;;;;66.40;25.42;;;;;;;;;;6281776;28;20044;-60
2024/01/05 14:51:32;;;;;;;69.47;24.52;;;;;;;;;;6284129;28;20059;-61
2024/01/05 14:54:32;;;;;;;71.93;26.55;;;;;;;;;;6287666;28;20044;-62
2024/01/05 14:57:33;;;;;;;67.40;26.73;;;;;;;;;;6288675;28;20729;-61
2024/01/05 15:00:34;;;;;;;70.45;27.05;;;;;;;;;;6286752;28;20044;-60
2024/01/05 15:03:37;;;;;;;74.40;29.00;;;;;;;;;;6288036;28;20056;-61
2024/01/05 15:06:38;;;;;;;77.90;26.98;;;;;;;;;;6288179;28;20060;-61
2024/01/05 15:09:38;;;;;;;71.38;28.02;;;;;;;;;;6289141;28;20048;-61
2024/01/05 15:12:39;;;;;;;78.55;29.42;;;;;;;;;;6287063;28;20281;-61
2024/01/05 15:15:40;;;;;;;81.68;29.40;;;;;;;;;;6288912;28;20059;-60
2024/01/05 15:18:41;;;;;;;76.90;29.08;;;;;;;;;;6275279;28;20076;-61
2024/01/05 15:21:41;;;;;;;91.40;29.88;;;;;;;;;;6276295;28;20057;-60
2024/01/05 15:24:45;;;;;;;79.03;28.10;;;;;;;;;;6281911;28;20054;-62
2024/01/05 15:27:46;;;;;;;88.82;30.63;;;;;;;;;;6282134;28;20049;-60
2024/01/05 15:30:47;;;;;;;90.53;29.52;;;;;;;;;;6280362;28;20099;-61
2024/01/05 15:33:47;;;;;;;79.22;27.80;;;;;;;;;;6279777;28;21050;-60
2024/01/05 15:36:51;;;;;;;80.90;26.63;;;;;;;;;;6282692;28;20068;-60
2024/01/05 15:39:52;;;;;;;82.10;29.25;;;;;;;;;;6280521;28;20052;-59
2024/01/05 15:42:53;;;;;;;86.45;29.45;;;;;;;;;;6285239;28;20048;-62
2024/01/05 15:45:54;;;;;;;73.70;27.58;;;;;;;;;;6284725;28;20403;-60
2024/01/05 15:48:55;;;;;;;69.97;27.40;;;;;;;;;;6286247;28;20044;-60
2024/01/05 15:51:56;;;;;;;75.45;27.08;;;;;;;;;;6286225;28;20475;-60
2024/01/05 15:54:57;;;;;;;71.82;26.75;;;;;;;;;;6282253;28;20055;-61
2024/01/05 15:57:58;;;;;;;75.40;28.58;;;;;;;;;;6284922;28;20040;-60
2024/01/05 16:00:59;;;;;;;76.78;29.08;;;;;;;;;;6285819;28;20052;-61
2024/01/05 16:04:00;;;;;;;81.85;31.25;;;;;;;;;;6286300;28;20052;-61
2024/01/05 16:07:01;;;;;;;85.50;30.13;;;;;;;;;;6292205;28;20059;-61
2024/01/05 16:10:04;;;;;;;85.55;31.10;;;;;;;;;;6291422;28;20044;-61
2024/01/05 16:13:06;;;;;;;81.05;29.60;;;;;;;;;;6291545;28;20402;-61
2024/01/05 16:16:10;;;;;;;96.25;34.47;;;;;;;;;;6292137;28;20407;-62
2024/01/05 16:19:11;;;;;;;91.10;32.92;;;;;;;;;;6292272;28;20045;-62
2024/01/05 16:22:11;;;;;;;93.57;35.67;;;;;;;;;;6289168;28;20049;-60
2024/01/05 16:25:30;;;;;;;89.45;33.90;;;;;;;;;;6289479;28;20419;-60
2024/01/05 16:28:31;;;;;;;104.65;37.75;;;;;;;;;;6291551;28;20048;-62
2024/01/05 16:31:32;;;;;;;90.53;34.10;;;;;;;;;;6284673;28;20455;-63
2024/01/05 16:34:33;;;;;;;102.82;35.95;;;;;;;;;;6287200;28;20662;-62
2024/01/05 16:37:33;;;;;;;87.57;31.20;;;;;;;;;;6289480;28;20049;-62
2024/01/05 16:40:34;;;;;;;80.55;28.65;;;;;;;;;;6291594;28;20128;-60
2024/01/05 16:43:36;;;;;;;83.72;29.00;;;;;;;;;;6288554;28;20045;-60
2024/01/05 16:46:37;;;;;;;85.88;31.38;;;;;;;;;;6291049;28;20420;-60
2024/01/05 16:49:38;;;;;;;81.97;30.23;;;;;;;;;;6290678;28;20439;-60
2024/01/05 16:52:39;;;;;;;92.07;31.95;;;;;;;;;;6287852;28;20059;-61
2024/01/05 16:55:39;;;;;;;97.25;33.75;;;;;;;;;;6290564;28;20052;-61
2024/01/05 16:58:40;;;;;;;109.05;34.80;;;;;;;;;;6292363;28;20457;-60
2024/01/05 17:01:41;;;;;;;112.90;36.13;;;;;;;;;;6291738;28;20060;-61
2024/01/05 17:04:42;;;;;;;106.40;35.83;;;;;;;;;;6290991;28;20048;-60
2024/01/05 17:07:43;;;;;;;100.97;35.22;;;;;;;;;;6284572;28;20514;-61
2024/01/05 17:10:45;;;;;;;103.35;34.50;;;;;;;;;;6282119;28;20051;-60
2024/01/05 17:13:46;;;;;;;102.28;36.30;;;;;;;;;;6299821;28;20055;-60
2024/01/05 17:16:47;;;;;;;116.22;36.30;;;;;;;;;;6291871;28;20407;-61
2024/01/05 17:19:48;;;;;;;106.63;34.88;;;;;;;;;;6291667;28;20051;-65
2024/01/05 17:22:49;;;;;;;114.35;37.67;;;;;;;;;;6290539;28;20171;-60
2024/01/05 17:25:51;;;;;;;122.38;39.55;;;;;;;;;;6291236;28;20441;-64
2024/01/05 17:28:52;;;;;;;128.48;40.10;;;;;;;;;;6291338;28;20430;-63
2024/01/05 17:31:53;;;;;;;129.30;41.97;;;;;;;;;;6291044;28;20055;-63
2024/01/05 17:34:54;;;;;;;121.03;40.20;;;;;;;;;;6290163;28;20089;-61
2024/01/05 17:37:55;;;;;;;125.00;41.08;;;;;;;;;;6291318;28;20385;-64
2024/01/05 17:40:56;;;;;;;117.40;38.63;;;;;;;;;;6289969;28;20080;-62
2024/01/05 17:43:57;;;;;;;111.20;36.65;;;;;;;;;;6287750;28;20499;-62
2024/01/05 17:46:58;;;;;;;103.05;33.70;;;;;;;;;;6291235;28;20060;-62